createdAt,value
2024-01-19T00:00:23.410Z,97.05
2024-01-19T00:03:33.094Z,96.95
2024-01-19T00:06:40.445Z,96.95
2024-01-19T00:09:48.159Z,97.05
2024-01-19T00:12:57.784Z,96.95
2024-01-19T00:16:05.358Z,96.95
2024-01-19T00:19:12.337Z,96.89
2024-01-19T00:22:20.017Z,96.89
2024-01-19T00:25:29.488Z,97.09
2024-01-19T00:28:37.107Z,97.09
2024-01-19T00:31:45.720Z,97.20
2024-01-19T00:34:55.696Z,97.31
2024-01-19T00:38:02.835Z,97.31
2024-01-19T00:41:04.778Z,97.41
2024-01-19T00:44:13.122Z,97.31
2024-01-19T00:47:20.789Z,97.69
2024-01-19T00:50:28.849Z,97.64
2024-01-19T00:53:37.796Z,97.43
2024-01-19T00:56:45.250Z,96.97
2024-01-19T00:59:53.478Z,96.19
2024-01-19T01:03:00.763Z,95.40
2024-01-19T01:06:09.397Z,94.46
2024-01-19T01:09:16.949Z,93.57
2024-01-19T01:12:17.350Z,92.48
2024-01-19T01:15:21.052Z,91.53
2024-01-19T01:18:28.748Z,91.07
2024-01-19T01:21:36.021Z,90.66
2024-01-19T01:24:44.731Z,90.23
2024-01-19T01:27:52.516Z,90.02
2024-01-19T01:30:59.749Z,90.02
2024-01-19T01:34:08.339Z,89.92
2024-01-19T01:37:15.889Z,90.02
2024-01-19T01:40:23.142Z,90.17
2024-01-19T01:43:31.950Z,90.27
2024-01-19T01:46:39.637Z,90.27
2024-01-19T01:49:47.050Z,90.42
2024-01-19T01:52:55.205Z,91.09
2024-01-19T01:56:04.499Z,91.62
2024-01-19T01:59:11.550Z,92.14
2024-01-19T02:02:19.431Z,92.40
2024-01-19T02:05:29.410Z,92.88
2024-01-19T02:08:36.984Z,93.03
2024-01-19T02:11:45.957Z,93.34
2024-01-19T02:14:54.844Z,93.51
2024-01-19T02:18:03.180Z,92.84
2024-01-19T02:21:10.933Z,92.21
2024-01-19T02:24:19.745Z,91.43
2024-01-19T02:27:26.690Z,90.55
2024-01-19T02:30:34.514Z,89.67
2024-01-19T02:33:44.167Z,88.93
2024-01-19T02:36:51.009Z,88.51
2024-01-19T02:39:59.249Z,88.16
2024-01-19T02:43:07.027Z,87.84
2024-01-19T02:46:16.543Z,87.32
2024-01-19T02:49:24.119Z,87.21
2024-01-19T02:52:32.064Z,87.21
2024-01-19T02:55:40.474Z,87.21
2024-01-19T02:58:48.289Z,87.42
2024-01-19T03:01:56.221Z,87.21
2024-01-19T03:05:04.801Z,87.21
2024-01-19T03:08:12.067Z,87.21
2024-01-19T03:11:19.562Z,87.32
2024-01-19T03:14:28.592Z,87.32
2024-01-19T03:17:36.658Z,87.32
2024-01-19T03:20:43.584Z,87.32
2024-01-19T03:23:51.089Z,87.63
2024-01-19T03:27:00.321Z,87.84
2024-01-19T03:30:09.147Z,88.05
2024-01-19T03:33:17.409Z,88.05
2024-01-19T03:36:26.631Z,88.47
2024-01-19T03:39:33.828Z,88.68
2024-01-19T03:42:41.578Z,88.54
2024-01-19T03:45:50.081Z,88.54
2024-01-19T03:48:57.232Z,88.64
2024-01-19T03:52:05.146Z,88.85
2024-01-19T03:55:15.859Z,88.75
2024-01-19T03:58:24.709Z,88.96
2024-01-19T04:01:32.531Z,89.52
2024-01-19T04:04:40.432Z,89.84
2024-01-19T04:07:49.313Z,90.19
2024-01-19T04:10:56.405Z,90.55
2024-01-19T04:14:04.423Z,90.76
2024-01-19T04:17:12.974Z,91.28
2024-01-19T04:20:20.394Z,91.71
2024-01-19T04:23:28.346Z,91.71
2024-01-19T04:26:37.526Z,91.81
2024-01-19T04:29:45.194Z,91.91
2024-01-19T04:32:52.970Z,91.45
2024-01-19T04:36:01.915Z,91.35
2024-01-19T04:39:08.940Z,91.24
2024-01-19T04:42:16.639Z,91.03
2024-01-19T04:45:23.412Z,91.03
2024-01-19T04:48:32.638Z,90.82
2024-01-19T04:51:40.302Z,90.92
2024-01-19T04:54:47.688Z,91.45
2024-01-19T04:57:56.801Z,92.67
2024-01-19T05:01:04.312Z,93.55
2024-01-19T05:04:11.519Z,94.39
2024-01-19T05:07:20.645Z,94.81
2024-01-19T05:10:28.219Z,95.28
2024-01-19T05:13:35.940Z,95.28
2024-01-19T05:16:36.391Z,94.85
2024-01-19T05:19:53.349Z,94.33
2024-01-19T05:23:01.050Z,93.91
2024-01-19T05:26:09.637Z,93.49
2024-01-19T05:29:17.890Z,93.18
2024-01-19T05:32:25.081Z,93.07
2024-01-19T05:35:32.496Z,93.22
2024-01-19T05:38:41.706Z,93.22
2024-01-19T05:41:49.258Z,93.32
2024-01-19T05:44:56.472Z,93.32
2024-01-19T05:48:06.392Z,93.53
2024-01-19T05:51:13.736Z,93.95
2024-01-19T05:54:21.453Z,94.17
2024-01-19T05:57:30.677Z,94.17
2024-01-19T06:00:38.751Z,94.48
2024-01-19T06:03:46.955Z,94.69
2024-01-19T06:06:56.486Z,94.90
2024-01-19T06:10:03.950Z,95.15
2024-01-19T06:13:11.787Z,95.26
2024-01-19T06:16:19.722Z,95.47
2024-01-19T06:19:28.619Z,95.57
2024-01-19T06:22:36.434Z,95.57
2024-01-19T06:25:44.159Z,95.57
2024-01-19T06:28:52.993Z,95.51
2024-01-19T06:32:00.575Z,95.62
2024-01-19T06:35:08.860Z,95.72
2024-01-19T06:38:17.892Z,96.03
2024-01-19T06:41:25.470Z,95.93
2024-01-19T06:44:32.731Z,95.89
2024-01-19T06:47:41.385Z,95.78
2024-01-19T06:50:49.728Z,95.68
2024-01-19T06:53:57.821Z,95.68
2024-01-19T06:57:05.114Z,95.68
2024-01-19T07:00:14.214Z,95.57
2024-01-19T07:03:22.558Z,95.68
2024-01-19T07:06:30.247Z,95.47
2024-01-19T07:09:39.192Z,95.47
2024-01-19T07:12:47.574Z,95.42
2024-01-19T07:15:54.772Z,95.53
2024-01-19T07:19:04.316Z,95.42
2024-01-19T07:22:13.174Z,95.42
2024-01-19T07:25:20.108Z,95.42
2024-01-19T07:28:29.252Z,95.42
2024-01-19T07:31:36.906Z,95.53
2024-01-19T07:34:44.061Z,95.64
2024-01-19T07:37:51.940Z,95.90
2024-01-19T07:41:01.712Z,95.70
2024-01-19T07:44:08.586Z,95.70
2024-01-19T07:47:16.415Z,95.90
2024-01-19T07:50:25.391Z,96.01
2024-01-19T07:53:32.714Z,96.01
2024-01-19T07:56:40.601Z,96.07
2024-01-19T07:59:49.821Z,96.18
2024-01-19T08:02:56.704Z,95.97
2024-01-19T08:06:05.311Z,96.07
2024-01-19T08:09:14.518Z,96.13
2024-01-19T08:12:21.420Z,95.82
2024-01-19T08:15:29.035Z,95.92
2024-01-19T08:18:38.478Z,95.82
2024-01-19T08:21:46.427Z,95.82
2024-01-19T08:24:54.319Z,95.67
2024-01-19T08:28:02.280Z,95.56
2024-01-19T08:31:11.135Z,95.31
2024-01-19T08:34:19.265Z,95.21
2024-01-19T08:37:28.155Z,95.00
2024-01-19T08:40:36.714Z,94.95
2024-01-19T08:43:44.150Z,94.64
2024-01-19T08:46:51.871Z,94.49
2024-01-19T08:50:00.512Z,94.24
2024-01-19T08:53:07.729Z,93.82
2024-01-19T08:56:15.527Z,93.57
2024-01-19T08:59:24.464Z,93.36
2024-01-19T09:02:32.216Z,93.21
2024-01-19T09:05:39.846Z,92.90
2024-01-19T09:08:47.483Z,92.48
2024-01-19T09:11:56.780Z,92.27
2024-01-19T09:15:04.389Z,92.16
2024-01-19T09:18:11.786Z,92.16
2024-01-19T09:21:20.698Z,92.27
2024-01-19T09:24:28.175Z,91.96
2024-01-19T09:27:36.186Z,91.71
2024-01-19T09:30:44.918Z,91.60
2024-01-19T09:33:52.849Z,91.39
2024-01-19T09:37:00.505Z,91.25
2024-01-19T09:40:09.845Z,91.14
2024-01-19T09:43:18.226Z,91.03
2024-01-19T09:46:25.834Z,90.93
2024-01-19T09:49:33.397Z,90.58
2024-01-19T09:52:42.457Z,90.26
2024-01-19T09:55:50.758Z,90.37
2024-01-19T09:58:58.137Z,90.26
2024-01-19T10:02:07.050Z,90.37
2024-01-19T10:05:15.138Z,90.20
2024-01-19T10:08:22.409Z,90.31
2024-01-19T10:11:31.635Z,90.16
2024-01-19T10:14:39.535Z,90.06
2024-01-19T10:17:47.573Z,89.84
2024-01-19T10:20:56.483Z,89.74
2024-01-19T10:24:04.022Z,89.43
2024-01-19T10:27:11.470Z,89.64
2024-01-19T10:30:21.042Z,89.11
2024-01-19T10:33:28.953Z,89.07
2024-01-19T10:36:36.245Z,88.87
2024-01-19T10:39:44.252Z,88.97
2024-01-19T10:42:53.142Z,88.55
2024-01-19T10:46:00.629Z,88.45
2024-01-19T10:49:09.105Z,88.13
2024-01-19T10:52:19.267Z,87.93
2024-01-19T10:55:27.122Z,87.93
2024-01-19T10:58:34.528Z,87.88
2024-01-19T11:01:44.362Z,87.99
2024-01-19T11:04:51.896Z,87.99
2024-01-19T11:07:59.649Z,87.57
2024-01-19T11:11:09.062Z,87.15
2024-01-19T11:14:17.628Z,87.26
2024-01-19T11:17:25.304Z,87.68
2024-01-19T11:20:33.318Z,87.57
2024-01-19T11:23:42.468Z,87.57
2024-01-19T11:26:50.229Z,87.53
2024-01-19T11:29:57.582Z,87.15
2024-01-19T11:33:07.298Z,87.12
2024-01-19T11:36:14.325Z,87.05
2024-01-19T11:39:22.155Z,87.47
2024-01-19T11:42:31.203Z,87.74
2024-01-19T11:45:39.128Z,87.43
2024-01-19T11:48:47.718Z,87.22
2024-01-19T11:51:59.689Z,86.97
2024-01-19T11:55:07.360Z,86.66
2024-01-19T11:58:15.344Z,86.24
2024-01-19T12:01:22.916Z,86.03
2024-01-19T12:04:31.730Z,86.13
2024-01-19T12:07:40.274Z,85.41
2024-01-19T12:10:48.846Z,84.88
2024-01-19T12:14:04.854Z,85.47
2024-01-19T12:17:02.592Z,85.05
2024-01-19T12:20:10.661Z,84.64
2024-01-19T12:23:19.313Z,84.84
2024-01-19T12:26:27.013Z,84.74
2024-01-19T12:29:34.810Z,85.02
2024-01-19T12:32:43.841Z,84.18
2024-01-19T12:35:51.112Z,84.08
2024-01-19T12:38:58.741Z,83.76
2024-01-19T12:42:07.316Z,83.76
2024-01-19T12:45:14.593Z,83.35
2024-01-19T12:48:28.864Z,83.04
2024-01-19T12:51:26.211Z,82.82
2024-01-19T12:54:35.173Z,82.51
2024-01-19T12:57:43.113Z,82.48
2024-01-19T13:00:50.137Z,82.37
2024-01-19T13:03:59.377Z,82.17
2024-01-19T13:07:06.627Z,81.43
2024-01-19T13:10:14.646Z,81.75
2024-01-19T13:13:23.454Z,81.75
2024-01-19T13:16:31.208Z,81.02
2024-01-19T13:19:38.600Z,81.23
2024-01-19T13:22:48.010Z,81.12
2024-01-19T13:25:55.752Z,81.23
2024-01-19T13:29:02.825Z,81.33
2024-01-19T13:32:10.719Z,81.43
2024-01-19T13:35:19.543Z,81.65
2024-01-19T13:38:26.936Z,81.65
2024-01-19T13:41:34.768Z,81.43
2024-01-19T13:44:43.570Z,81.96
2024-01-19T13:47:50.926Z,81.96
2024-01-19T13:50:59.604Z,82.27
2024-01-19T13:54:08.347Z,82.37
2024-01-19T13:57:15.700Z,82.41
2024-01-19T14:00:22.830Z,82.51
2024-01-19T14:03:32.257Z,82.41
2024-01-19T14:06:39.159Z,82.20
2024-01-19T14:09:46.770Z,82.31
2024-01-19T14:12:54.767Z,82.31
2024-01-19T14:16:03.599Z,82.41
2024-01-19T14:19:12.338Z,82.62
2024-01-19T14:22:19.524Z,82.72
2024-01-19T14:25:28.592Z,82.97
2024-01-19T14:28:36.028Z,83.07
2024-01-19T14:31:44.067Z,83.28
2024-01-19T14:34:56.372Z,83.28
2024-01-19T14:37:55.145Z,83.39
2024-01-19T14:41:03.013Z,83.59
2024-01-19T14:44:11.555Z,83.95
2024-01-19T14:47:19.710Z,84.05
2024-01-19T14:50:28.103Z,84.26
2024-01-19T14:53:36.213Z,84.57
2024-01-19T14:56:44.932Z,84.47
2024-01-19T14:59:53.037Z,84.61
2024-01-19T15:03:00.237Z,84.82
2024-01-19T15:06:09.483Z,85.03
2024-01-19T15:09:16.830Z,85.03
2024-01-19T15:12:24.139Z,85.13
2024-01-19T15:15:33.089Z,85.17
2024-01-19T15:18:40.694Z,85.49
2024-01-19T15:21:47.836Z,85.59
2024-01-19T15:24:56.850Z,85.80
2024-01-19T15:28:04.164Z,85.69
2024-01-19T15:31:11.317Z,85.59
2024-01-19T15:34:19.507Z,85.94
2024-01-19T15:37:28.774Z,86.15
2024-01-19T15:40:37.145Z,86.36
2024-01-19T15:43:44.302Z,86.61
2024-01-19T15:46:52.937Z,86.71
2024-01-19T15:50:00.105Z,87.02
2024-01-19T15:53:09.443Z,87.02
2024-01-19T15:56:07.595Z,87.07
2024-01-19T15:59:15.456Z,87.27
2024-01-19T16:02:22.941Z,87.48
2024-01-19T16:05:31.884Z,87.38
2024-01-19T16:08:39.366Z,87.38
2024-01-19T16:11:47.599Z,87.38
2024-01-19T16:14:55.287Z,87.69
2024-01-19T16:18:04.329Z,87.69
2024-01-19T16:21:11.707Z,87.69
2024-01-19T16:24:19.341Z,87.69
2024-01-19T16:27:28.440Z,87.69
2024-01-19T16:30:35.868Z,87.69
2024-01-19T16:33:44.581Z,87.73
2024-01-19T16:36:53.834Z,88.04
2024-01-19T16:40:01.743Z,88.04
2024-01-19T16:43:09.084Z,88.36
2024-01-19T16:46:18.432Z,88.50
2024-01-19T16:49:25.518Z,88.71
2024-01-19T16:52:33.277Z,88.82
2024-01-19T16:55:42.544Z,88.92
2024-01-19T16:58:50.607Z,88.92
2024-01-19T17:01:58.486Z,89.03
2024-01-19T17:05:06.177Z,89.03
2024-01-19T17:08:16.099Z,89.23
2024-01-19T17:11:23.987Z,89.45
2024-01-19T17:14:31.288Z,89.65
2024-01-19T17:17:40.883Z,89.80
2024-01-19T17:20:48.956Z,90.11
2024-01-19T17:23:58.594Z,90.11
2024-01-19T17:26:59.009Z,90.33
2024-01-19T17:30:06.371Z,90.22
2024-01-19T17:33:14.254Z,90.43
2024-01-19T17:36:23.255Z,90.84
2024-01-19T17:39:31.884Z,91.06
2024-01-19T17:42:39.409Z,91.06
2024-01-19T17:45:46.999Z,90.84
2024-01-19T17:48:56.241Z,90.74
2024-01-19T17:52:03.276Z,90.59
2024-01-19T17:55:10.931Z,90.74
2024-01-19T17:58:19.454Z,90.59
2024-01-19T18:01:26.713Z,90.64
2024-01-19T18:04:34.115Z,90.84
2024-01-19T18:07:43.041Z,90.95
2024-01-19T18:10:50.393Z,91.06
2024-01-19T18:13:57.507Z,91.06
2024-01-19T18:17:07.476Z,91.06
2024-01-19T18:20:14.659Z,91.06
2024-01-19T18:23:21.878Z,91.06
2024-01-19T18:26:29.440Z,91.16
2024-01-19T18:29:37.838Z,91.16
2024-01-19T18:32:48.180Z,91.16
2024-01-19T18:35:46.120Z,91.06
2024-01-19T18:38:54.839Z,91.06
2024-01-19T18:42:01.806Z,91.16
2024-01-19T18:45:09.405Z,91.06
2024-01-19T18:48:18.603Z,91.06
2024-01-19T18:51:26.029Z,91.06
2024-01-19T18:54:33.341Z,91.06
2024-01-19T18:57:42.121Z,91.02
2024-01-19T19:00:50.167Z,90.81
2024-01-19T19:03:57.745Z,90.59
2024-01-19T19:07:04.678Z,90.49
2024-01-19T19:10:15.486Z,90.59
2024-01-19T19:13:23.546Z,90.49
2024-01-19T19:16:37.104Z,90.28
2024-01-19T19:19:36.692Z,90.18
2024-01-19T19:22:44.655Z,90.28
2024-01-19T19:25:51.459Z,90.49
2024-01-19T19:29:00.227Z,90.59
2024-01-19T19:32:07.118Z,90.59
2024-01-19T19:35:15.021Z,90.59
2024-01-19T19:38:23.940Z,90.59
2024-01-19T19:41:31.535Z,90.39
2024-01-19T19:44:39.342Z,90.39
2024-01-19T19:47:47.045Z,90.28
2024-01-19T19:50:55.627Z,90.08
2024-01-19T19:54:03.146Z,89.86
2024-01-19T19:57:10.767Z,89.61
2024-01-19T20:00:19.122Z,89.45
2024-01-19T20:03:26.080Z,89.34
2024-01-19T20:06:33.842Z,89.34
2024-01-19T20:09:42.680Z,89.03
2024-01-19T20:12:50.893Z,88.92
2024-01-19T20:15:58.019Z,88.92
2024-01-19T20:19:07.683Z,89.03
2024-01-19T20:22:15.508Z,89.03
2024-01-19T20:25:23.252Z,89.03
2024-01-19T20:28:31.315Z,88.71
2024-01-19T20:31:41.414Z,88.82
2024-01-19T20:34:49.021Z,88.61
2024-01-19T20:37:57.348Z,88.61
2024-01-19T20:41:06.564Z,88.71
2024-01-19T20:44:15.473Z,88.75
2024-01-19T20:47:24.306Z,88.96
2024-01-19T20:50:34.529Z,89.07
2024-01-19T20:53:42.139Z,89.07
2024-01-19T20:56:51.669Z,89.32
2024-01-19T20:59:51.765Z,89.42
2024-01-19T21:02:59.057Z,89.63
2024-01-19T21:06:06.500Z,89.63
2024-01-19T21:09:14.314Z,89.73
2024-01-19T21:12:26.111Z,89.53
2024-01-19T21:15:33.863Z,89.42
2024-01-19T21:18:41.272Z,89.42
2024-01-19T21:21:50.704Z,89.32
2024-01-19T21:24:58.313Z,89.57
2024-01-19T21:28:05.656Z,89.57
2024-01-19T21:31:15.007Z,89.57
2024-01-19T21:34:22.878Z,89.57
2024-01-19T21:37:30.160Z,89.36
2024-01-19T21:40:39.478Z,89.04
2024-01-19T21:43:46.927Z,88.73
2024-01-19T21:46:54.637Z,88.37
2024-01-19T21:50:03.940Z,88.31
2024-01-19T21:53:12.318Z,88.21
2024-01-19T21:56:20.072Z,88.21
2024-01-19T21:59:27.890Z,88.10
2024-01-19T22:02:37.673Z,87.85
2024-01-19T22:05:44.972Z,87.89
2024-01-19T22:08:52.418Z,87.79
2024-01-19T22:12:01.512Z,87.79
2024-01-19T22:15:10.637Z,87.68
2024-01-19T22:18:17.984Z,87.79
2024-01-19T22:21:27.032Z,87.79
2024-01-19T22:24:34.669Z,87.89
2024-01-19T22:27:42.110Z,87.79
2024-01-19T22:30:52.307Z,88.04
2024-01-19T22:33:59.704Z,88.24
2024-01-19T22:37:07.502Z,88.24
2024-01-19T22:40:14.472Z,88.46
2024-01-19T22:43:23.929Z,88.56
2024-01-19T22:46:31.746Z,88.77
2024-01-19T22:49:38.661Z,89.09
2024-01-19T22:52:47.646Z,89.09
2024-01-19T22:55:56.534Z,89.19
2024-01-19T22:59:03.502Z,89.44
2024-01-19T23:02:13.166Z,89.65
2024-01-19T23:05:21.036Z,89.75
2024-01-19T23:08:28.284Z,89.97
2024-01-19T23:11:38.345Z,89.92
2024-01-19T23:14:45.193Z,89.72
2024-01-19T23:17:52.502Z,89.82
2024-01-19T23:20:59.791Z,89.92
2024-01-19T23:24:09.392Z,89.92
2024-01-19T23:27:17.055Z,89.92
2024-01-19T23:30:25.118Z,90.13
2024-01-19T23:33:34.796Z,90.23
2024-01-19T23:36:43.233Z,90.13
2024-01-19T23:39:50.412Z,90.55
2024-01-19T23:42:59.819Z,90.66
2024-01-19T23:46:07.557Z,90.76
2024-01-19T23:49:15.233Z,90.66
2024-01-19T23:52:23.840Z,90.76
2024-01-19T23:55:31.357Z,90.66
2024-01-19T23:58:39.527Z,90.76
